createdAt,value
2022-12-31T00:01:16.134Z,13.20
2022-12-31T00:03:47.042Z,13.20
2022-12-31T00:06:19.213Z,13.20
2022-12-31T00:08:48.275Z,13.20
2022-12-31T00:11:17.693Z,13.20
2022-12-31T00:13:48.127Z,13.20
2022-12-31T00:16:19.431Z,13.30
2022-12-31T00:18:51.645Z,13.30
2022-12-31T00:21:21.555Z,13.30
2022-12-31T00:23:50.601Z,13.30
2022-12-31T00:26:22.126Z,13.30
2022-12-31T00:28:50.773Z,13.40
2022-12-31T00:31:21.357Z,13.40
2022-12-31T00:33:51.441Z,13.40
2022-12-31T00:36:22.741Z,13.40
2022-12-31T00:38:53.348Z,13.40
2022-12-31T00:41:23.027Z,13.50
2022-12-31T00:43:52.355Z,13.50
2022-12-31T00:46:21.858Z,13.50
2022-12-31T00:48:51.926Z,13.50
2022-12-31T00:51:24.125Z,13.70
2022-12-31T00:53:53.123Z,13.60
2022-12-31T00:56:24.343Z,13.50
2022-12-31T00:58:53.211Z,13.50
2022-12-31T01:01:24.611Z,13.60
2022-12-31T01:03:57.405Z,13.60
2022-12-31T01:06:26.518Z,13.60
2022-12-31T01:08:56.274Z,13.60
2022-12-31T01:11:29.419Z,13.60
2022-12-31T01:14:01.589Z,13.60
2022-12-31T01:16:33.565Z,13.60
2022-12-31T01:19:06.776Z,13.60
2022-12-31T01:21:36.308Z,13.70
2022-12-31T01:24:05.335Z,13.70
2022-12-31T01:26:34.071Z,13.70
2022-12-31T01:29:02.422Z,13.70
2022-12-31T01:31:31.385Z,13.70
2022-12-31T01:33:59.888Z,13.70
2022-12-31T01:36:31.810Z,13.70
2022-12-31T01:39:02.898Z,13.70
2022-12-31T01:41:33.931Z,13.70
2022-12-31T01:44:04.613Z,13.80
2022-12-31T01:46:38.708Z,13.80
2022-12-31T01:49:23.959Z,13.80
2022-12-31T01:51:58.234Z,13.80
2022-12-31T01:54:28.507Z,13.80
2022-12-31T01:56:57.628Z,13.90
2022-12-31T01:59:28.792Z,13.90
2022-12-31T02:01:57.507Z,13.90
2022-12-31T02:04:27.733Z,13.90
2022-12-31T02:07:01.506Z,13.90
2022-12-31T02:09:30.883Z,13.90
2022-12-31T02:11:59.220Z,14.00
2022-12-31T02:14:33.771Z,13.90
2022-12-31T02:17:11.016Z,14.00
2022-12-31T02:20:13.812Z,14.00
2022-12-31T02:23:23.137Z,14.00
2022-12-31T02:26:31.460Z,14.00
2022-12-31T02:29:48.457Z,14.00
2022-12-31T02:32:23.198Z,14.00
2022-12-31T02:34:55.907Z,14.00
2022-12-31T02:37:26.464Z,14.00
2022-12-31T02:39:55.658Z,14.10
2022-12-31T02:42:23.998Z,14.00
2022-12-31T02:44:53.627Z,14.00
2022-12-31T02:47:35.631Z,14.00
2022-12-31T02:50:21.588Z,14.00
2022-12-31T02:53:00.709Z,14.00
2022-12-31T02:55:38.089Z,14.00
2022-12-31T02:58:14.679Z,14.10
2022-12-31T03:01:08.629Z,14.10
2022-12-31T03:03:38.370Z,14.00
2022-12-31T03:06:09.166Z,14.10
2022-12-31T03:08:58.166Z,14.10
2022-12-31T03:11:43.900Z,14.10
2022-12-31T03:14:12.282Z,14.10
2022-12-31T03:16:41.911Z,14.10
2022-12-31T03:19:32.839Z,14.10
2022-12-31T03:22:18.714Z,14.10
2022-12-31T03:25:04.765Z,14.10
2022-12-31T03:27:33.106Z,14.10
2022-12-31T03:30:01.699Z,14.10
2022-12-31T03:32:31.559Z,14.10
2022-12-31T03:34:59.897Z,14.20
2022-12-31T03:37:28.226Z,14.20
2022-12-31T03:39:57.039Z,14.20
2022-12-31T03:42:25.375Z,14.20
2022-12-31T03:44:53.692Z,14.30
2022-12-31T03:47:22.191Z,14.30
2022-12-31T03:49:51.966Z,14.30
2022-12-31T03:52:20.334Z,14.40
2022-12-31T03:54:48.698Z,14.40
2022-12-31T03:57:17.178Z,14.40
2022-12-31T03:59:45.568Z,14.40
2022-12-31T04:02:13.957Z,14.50
2022-12-31T04:04:42.511Z,14.50
2022-12-31T04:07:12.186Z,14.50
2022-12-31T04:09:40.490Z,14.50
2022-12-31T04:12:09.279Z,14.50
2022-12-31T04:14:37.530Z,15.00
2022-12-31T04:17:05.831Z,14.60
2022-12-31T04:19:34.203Z,14.60
2022-12-31T04:22:02.776Z,14.90
2022-12-31T04:24:32.514Z,14.60
2022-12-31T04:27:07.256Z,14.60
2022-12-31T04:29:36.559Z,14.70
2022-12-31T04:32:05.834Z,14.70
2022-12-31T04:34:34.711Z,14.70
2022-12-31T04:37:03.726Z,14.70
2022-12-31T04:39:33.573Z,14.70
2022-12-31T04:42:01.930Z,14.70
2022-12-31T04:44:31.680Z,14.80
2022-12-31T04:47:00.045Z,14.80
2022-12-31T04:49:28.356Z,14.80
2022-12-31T04:51:56.677Z,14.80
2022-12-31T04:54:25.263Z,14.80
2022-12-31T04:56:54.878Z,14.90
2022-12-31T04:59:23.201Z,14.90
2022-12-31T05:01:51.769Z,14.90
2022-12-31T05:04:20.138Z,14.90
2022-12-31T05:06:48.392Z,14.90
2022-12-31T05:09:16.762Z,14.90
2022-12-31T05:11:45.033Z,14.90
2022-12-31T05:14:14.648Z,14.90
2022-12-31T05:16:43.051Z,14.90
2022-12-31T05:19:11.334Z,15.00
2022-12-31T05:21:39.923Z,15.00
2022-12-31T05:24:09.139Z,15.00
2022-12-31T05:26:37.400Z,15.00
2022-12-31T05:29:05.714Z,15.00
2022-12-31T05:31:35.438Z,15.00
2022-12-31T05:34:03.711Z,15.00
2022-12-31T05:36:31.984Z,15.10
2022-12-31T05:39:00.352Z,15.10
2022-12-31T05:41:28.616Z,15.10
2022-12-31T05:43:56.891Z,15.20
2022-12-31T05:46:25.229Z,15.20
2022-12-31T05:48:54.913Z,15.20
2022-12-31T05:51:23.190Z,15.20
2022-12-31T05:53:51.503Z,15.20
2022-12-31T05:56:20.741Z,15.20
2022-12-31T05:58:49.035Z,15.20
2022-12-31T06:01:17.381Z,15.30
2022-12-31T06:03:45.712Z,15.30
2022-12-31T06:06:15.505Z,15.30
2022-12-31T06:08:43.857Z,15.30
2022-12-31T06:11:12.176Z,15.30
2022-12-31T06:13:40.476Z,15.30
2022-12-31T06:16:10.387Z,15.30
2022-12-31T06:18:39.076Z,15.30
2022-12-31T06:21:07.746Z,15.30
2022-12-31T06:23:37.432Z,15.40
2022-12-31T06:26:06.501Z,15.40
2022-12-31T06:28:34.941Z,15.40
2022-12-31T06:31:05.910Z,15.40
2022-12-31T06:33:35.287Z,15.40
2022-12-31T06:36:07.292Z,15.40
2022-12-31T06:38:39.546Z,15.50
2022-12-31T06:41:10.246Z,15.50
2022-12-31T06:43:39.961Z,15.50
2022-12-31T06:46:11.632Z,15.50
2022-12-31T06:48:41.941Z,15.60
2022-12-31T06:51:16.932Z,15.60
2022-12-31T06:53:49.080Z,15.60
2022-12-31T06:56:20.809Z,15.70
2022-12-31T06:58:50.521Z,15.70
2022-12-31T07:01:46.828Z,15.80
2022-12-31T07:04:59.317Z,15.80
2022-12-31T07:07:35.039Z,15.80
2022-12-31T07:10:17.394Z,16.00
2022-12-31T07:13:02.901Z,15.90
2022-12-31T07:15:49.815Z,15.90
2022-12-31T07:18:28.841Z,16.00
2022-12-31T07:20:57.966Z,16.00
2022-12-31T07:23:27.173Z,16.00
2022-12-31T07:26:06.186Z,16.10
2022-12-31T07:28:49.450Z,16.10
2022-12-31T07:31:32.893Z,16.10
2022-12-31T07:34:05.516Z,16.20
2022-12-31T07:36:59.322Z,16.30
2022-12-31T07:39:41.031Z,16.20
2022-12-31T07:42:20.153Z,16.30
2022-12-31T07:45:03.397Z,16.40
2022-12-31T07:47:32.662Z,16.40
2022-12-31T07:50:01.819Z,16.50
2022-12-31T07:52:30.980Z,16.50
2022-12-31T07:54:59.294Z,16.50
2022-12-31T07:57:37.096Z,16.80
2022-12-31T08:00:12.279Z,16.60
2022-12-31T08:03:15.664Z,16.60
2022-12-31T08:05:53.511Z,16.70
2022-12-31T08:08:37.720Z,16.70
2022-12-31T08:11:16.653Z,16.70
2022-12-31T08:13:47.435Z,16.80
2022-12-31T08:16:16.835Z,16.90
2022-12-31T08:18:45.933Z,16.90
2022-12-31T08:21:34.544Z,16.90
2022-12-31T08:24:14.963Z,17.00
2022-12-31T08:26:54.324Z,17.00
2022-12-31T08:29:37.508Z,17.00
2022-12-31T08:32:14.581Z,17.10
2022-12-31T08:34:54.779Z,17.10
2022-12-31T08:37:36.709Z,17.10
2022-12-31T08:40:26.713Z,17.20
2022-12-31T08:43:18.289Z,17.20
2022-12-31T08:45:52.510Z,17.30
2022-12-31T08:48:29.083Z,17.30
2022-12-31T08:50:58.446Z,17.30
2022-12-31T08:53:27.629Z,17.40
2022-12-31T08:56:04.133Z,17.40
2022-12-31T08:58:46.397Z,17.50
2022-12-31T09:01:21.648Z,17.50
2022-12-31T09:04:14.012Z,17.60
2022-12-31T09:06:49.454Z,17.60
2022-12-31T09:09:28.197Z,17.60
2022-12-31T09:12:07.504Z,17.60
2022-12-31T09:14:48.859Z,17.70
2022-12-31T09:17:43.974Z,17.70
2022-12-31T09:20:20.641Z,17.70
2022-12-31T09:22:49.688Z,17.70
2022-12-31T09:25:21.801Z,17.70
2022-12-31T09:28:05.588Z,17.80
2022-12-31T09:30:46.079Z,17.80
2022-12-31T09:33:28.564Z,17.90
2022-12-31T09:36:03.251Z,17.80
2022-12-31T09:38:43.575Z,17.90
2022-12-31T09:41:17.237Z,17.90
2022-12-31T09:44:51.933Z,17.90
2022-12-31T09:47:47.698Z,17.90
2022-12-31T09:50:52.784Z,18.00
2022-12-31T09:53:59.633Z,17.90
2022-12-31T09:56:35.084Z,18.00
2022-12-31T09:59:13.202Z,18.00
2022-12-31T10:01:52.074Z,18.00
2022-12-31T10:04:40.041Z,18.10
2022-12-31T10:07:25.861Z,18.10
2022-12-31T10:10:09.230Z,18.10
2022-12-31T10:13:20.142Z,18.20
2022-12-31T10:16:19.408Z,18.20
2022-12-31T10:19:45.789Z,18.30
2022-12-31T10:22:52.174Z,18.30
2022-12-31T10:25:41.856Z,18.30
2022-12-31T10:28:30.333Z,18.40
2022-12-31T10:31:15.363Z,18.40
2022-12-31T10:33:50.866Z,18.40
2022-12-31T10:36:23.718Z,18.50
2022-12-31T10:39:14.395Z,18.50
2022-12-31T10:42:26.747Z,18.50
2022-12-31T10:45:36.055Z,18.50
2022-12-31T10:48:57.819Z,18.50
2022-12-31T10:52:18.579Z,18.60
2022-12-31T10:55:33.574Z,18.60
2022-12-31T10:58:33.123Z,18.70
2022-12-31T11:01:12.232Z,18.60
2022-12-31T11:04:25.303Z,18.60
2022-12-31T11:07:36.187Z,18.60
2022-12-31T11:10:50.929Z,18.60
2022-12-31T11:13:59.159Z,18.60
2022-12-31T11:16:48.312Z,18.60
2022-12-31T11:19:27.202Z,18.60
2022-12-31T11:22:14.560Z,18.60
2022-12-31T11:25:18.291Z,18.60
2022-12-31T11:28:21.371Z,18.60
2022-12-31T11:31:13.711Z,18.60
2022-12-31T11:34:00.787Z,18.60
2022-12-31T11:36:42.776Z,18.60
2022-12-31T11:39:36.422Z,18.60
2022-12-31T11:42:20.831Z,18.70
2022-12-31T11:44:58.192Z,18.60
2022-12-31T11:48:28.049Z,18.70
2022-12-31T11:50:48.871Z,18.60
2022-12-31T11:53:35.050Z,18.90
2022-12-31T11:56:15.774Z,18.60
2022-12-31T11:58:49.890Z,18.60
2022-12-31T12:01:23.811Z,18.70
2022-12-31T12:03:52.258Z,18.70
2022-12-31T12:06:27.884Z,18.90
2022-12-31T12:09:04.897Z,18.70
2022-12-31T12:11:38.315Z,18.70
2022-12-31T12:14:22.471Z,18.80
2022-12-31T12:17:00.907Z,18.80
2022-12-31T12:19:35.056Z,18.80
2022-12-31T12:22:12.632Z,19.00
2022-12-31T12:24:41.248Z,18.80
2022-12-31T12:27:24.262Z,19.00
2022-12-31T12:29:53.949Z,18.90
2022-12-31T12:32:24.996Z,18.90
2022-12-31T12:34:54.318Z,18.90
2022-12-31T12:37:33.408Z,18.90
2022-12-31T12:40:05.702Z,18.90
2022-12-31T12:42:34.173Z,18.90
2022-12-31T12:45:07.932Z,18.90
2022-12-31T12:47:36.923Z,19.00
2022-12-31T12:50:07.449Z,19.00
2022-12-31T12:53:02.764Z,19.00
2022-12-31T12:55:41.973Z,19.20
2022-12-31T12:58:23.148Z,19.00
2022-12-31T13:01:01.313Z,19.00
2022-12-31T13:04:35.453Z,19.00
2022-12-31T13:07:20.006Z,19.10
2022-12-31T13:10:06.353Z,19.10
2022-12-31T13:13:22.257Z,19.10
2022-12-31T13:15:36.790Z,19.10
2022-12-31T13:18:21.640Z,19.20
2022-12-31T13:20:57.815Z,19.40
2022-12-31T13:23:39.301Z,19.20
2022-12-31T13:26:14.879Z,19.30
2022-12-31T13:28:44.668Z,19.20
2022-12-31T13:31:18.027Z,19.30
2022-12-31T13:33:59.722Z,19.30
2022-12-31T13:36:29.855Z,19.30
2022-12-31T13:39:02.406Z,19.30
2022-12-31T13:41:36.239Z,19.30
2022-12-31T13:44:14.397Z,19.40
2022-12-31T13:46:48.030Z,19.40
2022-12-31T13:49:25.472Z,19.30
2022-12-31T13:52:01.623Z,19.40
2022-12-31T13:54:39.342Z,19.40
2022-12-31T13:57:18.776Z,19.40
2022-12-31T13:59:53.684Z,19.40
2022-12-31T14:02:34.735Z,19.40
2022-12-31T14:05:15.440Z,19.40
2022-12-31T14:07:52.674Z,19.40
2022-12-31T14:10:36.058Z,19.40
2022-12-31T14:13:18.208Z,19.40
2022-12-31T14:15:56.347Z,19.40
2022-12-31T14:18:31.386Z,19.40
2022-12-31T14:21:30.127Z,19.40
2022-12-31T14:24:08.093Z,19.30
2022-12-31T14:26:41.896Z,19.30
2022-12-31T14:29:30.567Z,19.30
2022-12-31T14:32:43.887Z,19.30
2022-12-31T14:35:51.585Z,19.30
2022-12-31T14:38:34.578Z,19.30
2022-12-31T14:41:20.621Z,19.30
2022-12-31T14:44:04.349Z,19.30
2022-12-31T14:46:44.440Z,19.20
2022-12-31T14:49:30.089Z,19.20
2022-12-31T14:52:10.081Z,19.20
2022-12-31T14:54:39.751Z,19.20
2022-12-31T14:57:20.200Z,19.20
2022-12-31T14:59:56.195Z,19.10
2022-12-31T15:02:29.183Z,19.30
2022-12-31T15:05:17.132Z,19.20
2022-12-31T15:08:03.044Z,19.10
2022-12-31T15:10:48.169Z,19.10
2022-12-31T15:13:29.102Z,19.00
2022-12-31T15:16:25.779Z,19.00
2022-12-31T15:19:26.176Z,18.90
2022-12-31T15:22:06.009Z,19.00
2022-12-31T15:24:34.537Z,18.90
2022-12-31T15:27:07.680Z,18.90
2022-12-31T15:29:44.265Z,18.80
2022-12-31T15:32:21.312Z,18.80
2022-12-31T15:35:01.569Z,18.80
2022-12-31T15:37:33.893Z,18.70
2022-12-31T15:40:21.103Z,18.70
2022-12-31T15:42:55.505Z,18.70
2022-12-31T15:45:29.186Z,18.60
2022-12-31T15:48:00.188Z,18.60
2022-12-31T15:50:30.168Z,18.60
2022-12-31T15:53:01.466Z,18.60
2022-12-31T15:55:38.391Z,18.60
2022-12-31T15:58:13.218Z,18.50
2022-12-31T16:00:58.862Z,18.50
2022-12-31T16:03:30.623Z,18.50
2022-12-31T16:06:02.757Z,18.50
2022-12-31T16:08:33.504Z,18.40
2022-12-31T16:11:04.606Z,18.50
2022-12-31T16:13:38.150Z,18.30
2022-12-31T16:16:09.398Z,18.30
2022-12-31T16:18:40.349Z,18.30
2022-12-31T16:21:30.194Z,18.30
2022-12-31T16:24:05.199Z,18.30
2022-12-31T16:26:43.518Z,18.30
2022-12-31T16:29:16.547Z,18.20
2022-12-31T16:31:46.114Z,18.20
2022-12-31T16:34:17.671Z,18.40
2022-12-31T16:36:58.380Z,18.20
2022-12-31T16:39:30.689Z,18.20
2022-12-31T16:42:21.321Z,18.10
2022-12-31T16:44:53.822Z,18.10
2022-12-31T16:47:25.129Z,18.10
2022-12-31T16:50:01.700Z,18.10
2022-12-31T16:52:36.153Z,18.00
2022-12-31T16:55:10.090Z,18.00
2022-12-31T16:57:39.405Z,18.00
2022-12-31T17:00:17.228Z,18.00
2022-12-31T17:02:50.692Z,18.00
2022-12-31T17:05:21.682Z,18.00
2022-12-31T17:07:50.389Z,18.00
2022-12-31T17:10:25.080Z,17.90
2022-12-31T17:15:49.385Z,17.90
2022-12-31T17:18:21.318Z,17.90
2022-12-31T17:20:51.506Z,17.80
2022-12-31T17:23:26.867Z,17.80
2022-12-31T17:26:06.469Z,17.80
2022-12-31T17:28:44.092Z,17.80
2022-12-31T17:31:37.090Z,17.80
2022-12-31T17:34:24.612Z,17.70
2022-12-31T17:37:02.818Z,17.70
2022-12-31T17:39:50.506Z,17.70
2022-12-31T17:42:35.637Z,17.70
2022-12-31T17:45:09.196Z,17.70
2022-12-31T17:47:41.671Z,17.70
2022-12-31T17:50:22.699Z,17.80
2022-12-31T17:52:51.110Z,17.60
2022-12-31T17:55:19.570Z,17.60
2022-12-31T17:57:53.464Z,17.60
2022-12-31T18:00:25.852Z,17.60
2022-12-31T18:02:55.689Z,17.60
2022-12-31T18:05:25.680Z,17.60
2022-12-31T18:07:54.687Z,17.60
2022-12-31T18:10:25.475Z,17.60
2022-12-31T18:12:54.038Z,17.60
2022-12-31T18:15:25.530Z,17.60
2022-12-31T18:17:55.205Z,17.60
2022-12-31T18:20:24.372Z,17.60
2022-12-31T18:22:53.086Z,17.60
2022-12-31T18:25:24.384Z,17.50
2022-12-31T18:27:53.569Z,17.50
2022-12-31T18:30:23.400Z,17.50
2022-12-31T18:32:51.818Z,17.50
2022-12-31T18:38:16.694Z,17.40
2022-12-31T18:40:50.185Z,17.40
2022-12-31T18:43:20.184Z,17.40
2022-12-31T18:45:49.926Z,17.30
2022-12-31T18:48:18.981Z,17.30
2022-12-31T18:50:49.837Z,17.20
2022-12-31T18:53:21.045Z,17.30
2022-12-31T18:55:51.914Z,17.20
2022-12-31T18:58:20.332Z,17.10
2022-12-31T19:00:50.493Z,17.10
2022-12-31T19:03:22.365Z,17.00
2022-12-31T19:05:53.047Z,17.00
2022-12-31T19:08:23.174Z,16.90
2022-12-31T19:10:53.811Z,16.90
2022-12-31T19:13:23.313Z,16.90
2022-12-31T19:15:53.383Z,16.90
2022-12-31T19:18:21.735Z,16.90
2022-12-31T19:20:52.907Z,16.90
2022-12-31T19:23:22.559Z,17.00
2022-12-31T19:25:51.402Z,17.00
2022-12-31T19:28:22.047Z,17.00
2022-12-31T19:30:50.470Z,17.00
2022-12-31T19:33:19.082Z,17.00
2022-12-31T19:35:48.047Z,17.00
2022-12-31T19:38:20.980Z,17.10
2022-12-31T19:40:50.398Z,17.10
2022-12-31T19:43:21.945Z,17.20
2022-12-31T19:45:52.176Z,17.20
2022-12-31T19:48:30.255Z,17.30
2022-12-31T19:51:01.009Z,17.20
2022-12-31T19:53:30.651Z,17.30
2022-12-31T19:55:58.909Z,17.30
2022-12-31T19:58:27.967Z,17.30
2022-12-31T20:01:02.944Z,17.40
2022-12-31T20:03:32.536Z,17.60
2022-12-31T20:06:07.578Z,17.40
2022-12-31T20:08:39.482Z,17.50
2022-12-31T20:11:12.847Z,17.50
2022-12-31T20:13:42.798Z,17.60
2022-12-31T20:16:14.026Z,17.50
2022-12-31T20:18:44.319Z,17.60
2022-12-31T20:21:14.919Z,17.60
2022-12-31T20:23:45.235Z,17.80
2022-12-31T20:26:13.955Z,17.70
2022-12-31T20:28:42.294Z,17.70
2022-12-31T20:31:13.017Z,17.70
2022-12-31T20:33:41.580Z,18.00
2022-12-31T20:36:12.501Z,17.70
2022-12-31T20:38:40.928Z,17.80
2022-12-31T20:41:13.385Z,17.80
2022-12-31T20:43:42.396Z,17.90
2022-12-31T20:46:15.707Z,17.80
2022-12-31T20:48:46.027Z,17.80
2022-12-31T20:51:15.853Z,17.80
2022-12-31T20:53:48.643Z,17.90
2022-12-31T20:56:19.284Z,17.80
2022-12-31T20:58:48.110Z,17.90
2022-12-31T21:01:17.215Z,17.90
2022-12-31T21:04:05.581Z,17.90
2022-12-31T21:06:35.839Z,17.90
2022-12-31T21:09:06.960Z,17.80
2022-12-31T21:11:54.765Z,17.80
2022-12-31T21:14:23.215Z,17.80
2022-12-31T21:16:52.051Z,17.80
2022-12-31T21:19:20.362Z,18.00
2022-12-31T21:21:49.821Z,17.80
2022-12-31T21:24:23.648Z,17.80
2022-12-31T21:26:56.004Z,17.80
2022-12-31T21:29:24.431Z,18.00
2022-12-31T21:31:52.784Z,17.80
2022-12-31T21:34:21.079Z,17.80
2022-12-31T21:36:49.372Z,17.80
2022-12-31T21:39:17.755Z,17.80
2022-12-31T21:41:54.843Z,17.80
2022-12-31T21:44:26.945Z,17.80
2022-12-31T21:47:34.972Z,17.80
2022-12-31T21:50:05.146Z,17.70
2022-12-31T21:52:35.215Z,17.70
2022-12-31T21:55:23.748Z,17.70
2022-12-31T21:58:24.631Z,17.70
2022-12-31T22:01:00.191Z,17.70
2022-12-31T22:03:29.047Z,17.60
2022-12-31T22:06:00.904Z,17.60
2022-12-31T22:08:31.365Z,17.60
2022-12-31T22:10:59.744Z,17.60
2022-12-31T22:13:28.197Z,17.60
2022-12-31T22:16:04.735Z,17.60
2022-12-31T22:18:35.514Z,17.50
2022-12-31T22:21:13.785Z,17.60
2022-12-31T22:23:46.989Z,17.60
2022-12-31T22:26:17.825Z,17.60
2022-12-31T22:28:47.518Z,17.80
2022-12-31T22:31:20.792Z,17.60
2022-12-31T22:33:49.895Z,17.60
2022-12-31T22:36:21.366Z,17.60
2022-12-31T22:38:51.207Z,17.70
2022-12-31T22:41:22.890Z,17.60
2022-12-31T22:44:00.288Z,17.70
2022-12-31T22:46:33.281Z,17.70
2022-12-31T22:49:03.421Z,18.00
2022-12-31T22:51:56.078Z,17.70
2022-12-31T22:54:21.926Z,17.80
2022-12-31T22:56:50.292Z,17.80
2022-12-31T22:59:18.729Z,17.80
2022-12-31T23:01:48.427Z,17.80
2022-12-31T23:04:17.147Z,17.80
2022-12-31T23:06:45.901Z,17.80
2022-12-31T23:09:34.022Z,17.70
2022-12-31T23:12:02.878Z,17.80
2022-12-31T23:14:48.689Z,17.80
2022-12-31T23:17:39.354Z,17.80
2022-12-31T23:20:31.511Z,17.80
2022-12-31T23:23:09.997Z,17.80
2022-12-31T23:25:41.315Z,17.80
2022-12-31T23:28:12.030Z,17.80
2022-12-31T23:30:41.124Z,17.80
2022-12-31T23:33:16.411Z,17.70
2022-12-31T23:35:45.378Z,17.80
2022-12-31T23:38:16.729Z,17.70
2022-12-31T23:40:45.741Z,17.90
2022-12-31T23:43:23.104Z,17.70
2022-12-31T23:45:52.539Z,17.80
2022-12-31T23:48:22.393Z,17.70
2022-12-31T23:50:53.332Z,17.70
2022-12-31T23:53:23.372Z,17.70
2022-12-31T23:55:51.850Z,17.70
2022-12-31T23:58:21.184Z,17.70
